createdAt,value
2017-11-20T00:01:40.569Z,3.30
2017-11-20T00:04:08.825Z,3.40
2017-11-20T00:06:37.087Z,3.20
2017-11-20T00:09:05.430Z,3.20
2017-11-20T00:11:34.441Z,3.10
2017-11-20T00:14:03.738Z,3.10
2017-11-20T00:16:32.081Z,3.10
2017-11-20T00:19:00.415Z,3.10
2017-11-20T00:21:29.580Z,3.10
2017-11-20T00:23:58.628Z,3.10
2017-11-20T00:26:26.948Z,3.10
2017-11-20T00:28:55.414Z,3.20
2017-11-20T00:31:23.682Z,3.10
2017-11-20T00:33:52.072Z,3.10
2017-11-20T00:36:20.325Z,3.10
2017-11-20T00:38:48.596Z,3.10
2017-11-20T00:41:16.850Z,3.00
2017-11-20T00:43:45.893Z,3.00
2017-11-20T00:46:14.170Z,3.00
2017-11-20T00:48:42.465Z,3.00
2017-11-20T00:51:11.546Z,3.00
2017-11-20T00:53:39.821Z,3.00
2017-11-20T00:56:08.070Z,2.90
2017-11-20T00:58:36.374Z,3.00
2017-11-20T01:01:04.653Z,2.90
2017-11-20T01:03:33.133Z,2.90
2017-11-20T01:06:01.405Z,3.00
2017-11-20T01:08:29.805Z,3.00
2017-11-20T01:10:58.822Z,3.00
2017-11-20T01:13:27.891Z,3.00
2017-11-20T01:15:56.158Z,3.00
2017-11-20T01:18:24.457Z,3.00
2017-11-20T01:20:52.709Z,3.00
2017-11-20T01:23:21.781Z,2.90
2017-11-20T01:25:50.050Z,2.90
2017-11-20T01:28:18.307Z,2.90
2017-11-20T01:30:46.579Z,2.90
2017-11-20T01:33:14.851Z,2.90
2017-11-20T01:35:43.150Z,2.90
2017-11-20T01:38:11.534Z,3.00
2017-11-20T01:40:39.777Z,2.90
2017-11-20T01:43:08.077Z,2.90
2017-11-20T01:45:36.349Z,2.90
2017-11-20T01:48:04.623Z,2.90
2017-11-20T01:50:32.866Z,2.90
2017-11-20T01:53:01.196Z,2.90
2017-11-20T01:55:29.445Z,2.80
2017-11-20T01:57:57.722Z,2.90
2017-11-20T02:00:25.968Z,2.90
2017-11-20T02:03:00.133Z,2.80
2017-11-20T02:05:28.438Z,2.90
2017-11-20T02:07:56.785Z,2.80
2017-11-20T02:10:25.071Z,2.80
2017-11-20T02:12:53.453Z,2.80
2017-11-20T02:15:21.712Z,2.70
2017-11-20T02:17:49.973Z,2.70
2017-11-20T02:20:18.329Z,2.70
2017-11-20T02:22:47.357Z,2.70
2017-11-20T02:25:15.621Z,2.70
2017-11-20T02:27:43.925Z,2.70
2017-11-20T02:30:12.181Z,2.70
2017-11-20T02:32:40.437Z,2.80
2017-11-20T02:35:08.717Z,2.70
2017-11-20T02:37:37.154Z,2.70
2017-11-20T02:40:05.425Z,2.70
2017-11-20T02:42:33.698Z,2.70
2017-11-20T02:45:02.182Z,2.70
2017-11-20T02:47:30.421Z,2.70
2017-11-20T02:49:58.699Z,2.70
2017-11-20T02:52:26.942Z,2.70
2017-11-20T02:54:56.003Z,2.70
2017-11-20T02:57:24.278Z,2.70
2017-11-20T02:59:52.661Z,2.70
2017-11-20T03:02:20.917Z,2.70
2017-11-20T03:04:49.181Z,2.70
2017-11-20T03:07:17.433Z,2.80
2017-11-20T03:09:46.588Z,2.80
2017-11-20T03:12:14.853Z,2.80
2017-11-20T03:14:43.244Z,2.80
2017-11-20T03:17:11.497Z,2.80
2017-11-20T03:19:39.800Z,2.80
2017-11-20T03:22:08.057Z,2.80
2017-11-20T03:24:36.354Z,2.80
2017-11-20T03:27:04.628Z,2.80
2017-11-20T03:29:32.907Z,2.90
2017-11-20T03:32:01.185Z,3.00
2017-11-20T03:34:29.542Z,3.00
2017-11-20T03:36:57.785Z,3.10
2017-11-20T03:39:27.748Z,3.20
2017-11-20T03:41:56.148Z,3.20
2017-11-20T03:44:24.482Z,3.30
2017-11-20T03:46:52.720Z,3.30
2017-11-20T03:49:22.091Z,3.40
2017-11-20T03:51:50.336Z,3.40
2017-11-20T03:54:18.616Z,3.50
2017-11-20T03:56:46.925Z,3.50
2017-11-20T03:59:15.186Z,3.70
2017-11-20T04:01:43.509Z,3.80
2017-11-20T04:04:12.540Z,4.10
2017-11-20T04:06:40.863Z,4.10
2017-11-20T04:09:09.201Z,4.00
2017-11-20T04:11:37.433Z,4.10
2017-11-20T04:14:05.698Z,4.00
2017-11-20T04:16:33.960Z,4.00
2017-11-20T04:19:02.226Z,4.00
2017-11-20T04:21:30.501Z,4.10
2017-11-20T04:23:58.762Z,4.10
2017-11-20T04:26:27.029Z,4.20
2017-11-20T04:28:55.287Z,4.10
2017-11-20T04:31:23.929Z,4.10
2017-11-20T04:33:52.181Z,4.10
2017-11-20T04:36:20.480Z,4.20
2017-11-20T04:38:48.724Z,4.30
2017-11-20T04:41:16.990Z,4.20
2017-11-20T04:43:45.259Z,4.10
2017-11-20T04:46:14.298Z,4.20
2017-11-20T04:48:42.533Z,4.10
2017-11-20T04:51:10.804Z,4.30
2017-11-20T04:53:39.839Z,4.30
2017-11-20T04:56:08.145Z,4.30
2017-11-20T04:58:37.909Z,4.20
2017-11-20T05:01:06.181Z,4.20
2017-11-20T05:03:34.441Z,4.30
2017-11-20T05:06:03.473Z,4.30
2017-11-20T05:08:31.773Z,4.30
2017-11-20T05:11:00.359Z,4.30
2017-11-20T05:13:28.599Z,4.30
2017-11-20T05:15:56.893Z,4.30
2017-11-20T05:18:25.291Z,4.40
2017-11-20T05:20:53.557Z,4.50
2017-11-20T05:23:21.814Z,4.40
2017-11-20T05:25:50.076Z,4.50
2017-11-20T05:28:19.152Z,4.50
2017-11-20T05:30:47.491Z,4.50
2017-11-20T05:33:15.778Z,4.60
2017-11-20T05:35:44.029Z,4.60
2017-11-20T05:38:12.294Z,4.60
2017-11-20T05:40:41.310Z,4.60
2017-11-20T05:43:09.577Z,4.60
2017-11-20T05:45:37.844Z,4.60
2017-11-20T05:48:06.167Z,4.60
2017-11-20T05:50:35.953Z,4.60
2017-11-20T05:53:04.235Z,4.60
2017-11-20T05:55:32.490Z,4.60
2017-11-20T05:58:00.753Z,4.60
2017-11-20T06:00:29.145Z,4.60
2017-11-20T06:02:57.428Z,4.60
2017-11-20T06:05:25.681Z,4.60
2017-11-20T06:07:53.946Z,4.60
2017-11-20T06:10:23.702Z,4.50
2017-11-20T06:12:51.977Z,4.50
2017-11-20T06:15:20.259Z,4.60
2017-11-20T06:17:48.539Z,4.60
2017-11-20T06:20:16.795Z,4.60
2017-11-20T06:22:45.053Z,4.50
2017-11-20T06:25:13.320Z,4.60
2017-11-20T06:27:41.598Z,4.60
2017-11-20T06:30:10.614Z,4.70
2017-11-20T06:32:38.889Z,4.70
2017-11-20T06:35:07.140Z,4.70
2017-11-20T06:37:36.188Z,4.60
2017-11-20T06:40:10.029Z,4.60
2017-11-20T06:42:39.065Z,4.70
2017-11-20T06:45:07.367Z,4.70
2017-11-20T06:47:35.642Z,4.70
2017-11-20T06:50:03.892Z,4.70
2017-11-20T06:52:32.165Z,4.70
2017-11-20T06:55:00.599Z,4.70
2017-11-20T06:57:28.860Z,4.80
2017-11-20T06:59:57.137Z,4.80
2017-11-20T07:02:25.515Z,4.90
2017-11-20T07:04:53.748Z,4.90
2017-11-20T07:07:22.068Z,4.90
2017-11-20T07:09:50.307Z,5.00
2017-11-20T07:12:18.556Z,5.00
2017-11-20T07:14:47.617Z,5.00
2017-11-20T07:17:15.866Z,5.00
2017-11-20T07:19:44.138Z,5.00
2017-11-20T07:22:12.384Z,5.00
2017-11-20T07:24:41.413Z,5.00
2017-11-20T07:27:21.588Z,5.00
2017-11-20T07:33:04.303Z,5.10
2017-11-20T07:35:44.239Z,5.10
2017-11-20T07:38:18.216Z,5.00
2017-11-20T07:40:58.241Z,5.10
2017-11-20T07:43:26.596Z,5.00
2017-11-20T07:45:54.879Z,5.00
2017-11-20T07:48:23.339Z,5.00
2017-11-20T07:50:51.589Z,5.00
2017-11-20T07:53:19.871Z,5.00
2017-11-20T07:55:48.141Z,5.00
2017-11-20T07:58:16.410Z,4.90
2017-11-20T08:00:44.662Z,4.90
2017-11-20T08:03:13.038Z,4.90
2017-11-20T08:05:41.280Z,4.90
2017-11-20T08:08:09.541Z,4.90
2017-11-20T08:10:37.813Z,4.90
2017-11-20T08:13:06.116Z,4.90
2017-11-20T08:15:34.403Z,4.90
2017-11-20T08:18:02.687Z,4.80
2017-11-20T08:20:30.949Z,4.80
2017-11-20T08:22:59.240Z,4.90
2017-11-20T08:25:27.496Z,5.00
2017-11-20T08:27:55.894Z,5.10
2017-11-20T08:30:24.132Z,5.10
2017-11-20T08:32:52.407Z,5.10
2017-11-20T08:35:20.657Z,5.10
2017-11-20T08:37:49.724Z,5.00
2017-11-20T08:40:17.979Z,5.00
2017-11-20T08:42:46.254Z,5.00
2017-11-20T08:45:14.506Z,5.00
2017-11-20T08:47:42.779Z,5.10
2017-11-20T08:50:11.029Z,5.10
2017-11-20T08:52:40.060Z,5.20
2017-11-20T08:55:08.316Z,5.20
2017-11-20T08:57:36.582Z,5.30
2017-11-20T09:00:05.602Z,5.30
2017-11-20T09:02:33.925Z,5.30
2017-11-20T09:05:02.197Z,5.40
2017-11-20T09:07:30.458Z,5.40
2017-11-20T09:09:58.710Z,5.50
2017-11-20T09:12:26.981Z,5.40
2017-11-20T09:14:55.312Z,5.50
2017-11-20T09:17:24.351Z,5.70
2017-11-20T09:19:52.670Z,5.70
2017-11-20T09:22:20.919Z,5.80
2017-11-20T09:24:49.218Z,5.80
2017-11-20T09:27:17.472Z,5.90
2017-11-20T09:29:45.789Z,5.90
2017-11-20T09:32:14.047Z,5.90
2017-11-20T09:34:42.309Z,6.00
2017-11-20T09:37:10.556Z,6.00
2017-11-20T09:39:38.830Z,6.20
2017-11-20T09:42:07.846Z,6.30
2017-11-20T09:44:36.156Z,6.20
2017-11-20T09:47:04.411Z,6.30
2017-11-20T09:49:32.683Z,6.40
2017-11-20T09:52:00.934Z,6.40
2017-11-20T09:54:29.982Z,6.40
2017-11-20T09:56:58.237Z,6.40
2017-11-20T09:59:26.536Z,6.40
2017-11-20T10:01:54.782Z,6.40
2017-11-20T10:04:23.054Z,6.50
2017-11-20T10:06:51.305Z,6.50
2017-11-20T10:09:20.341Z,6.70
2017-11-20T10:11:48.592Z,6.60
2017-11-20T10:14:17.014Z,6.60
2017-11-20T10:16:45.244Z,6.60
2017-11-20T10:19:13.517Z,6.70
2017-11-20T10:21:41.847Z,6.70
2017-11-20T10:24:10.233Z,6.90
2017-11-20T10:26:38.494Z,6.80
2017-11-20T10:29:06.763Z,6.80
2017-11-20T10:31:35.033Z,6.80
2017-11-20T10:34:03.302Z,6.70
2017-11-20T10:36:31.551Z,6.70
2017-11-20T10:39:00.585Z,6.80
2017-11-20T10:41:28.841Z,6.80
2017-11-20T10:43:57.174Z,6.90
2017-11-20T10:46:26.363Z,6.80
2017-11-20T10:48:54.616Z,6.80
2017-11-20T10:51:22.886Z,6.70
2017-11-20T10:53:51.182Z,6.50
2017-11-20T10:56:19.443Z,6.70
2017-11-20T10:58:47.727Z,6.70
2017-11-20T11:01:15.981Z,6.80
2017-11-20T11:03:44.247Z,6.80
2017-11-20T11:06:12.508Z,6.90
2017-11-20T11:08:41.542Z,6.80
2017-11-20T11:11:09.785Z,6.80
2017-11-20T11:13:38.817Z,6.90
2017-11-20T11:16:07.070Z,6.90
2017-11-20T11:18:35.412Z,6.90
2017-11-20T11:21:04.450Z,6.90
2017-11-20T11:23:32.765Z,6.90
2017-11-20T11:26:01.061Z,7.00
2017-11-20T11:28:30.133Z,7.00
2017-11-20T11:30:58.416Z,7.00
2017-11-20T11:33:26.791Z,7.00
2017-11-20T11:35:55.045Z,7.00
2017-11-20T11:38:23.293Z,7.00
2017-11-20T11:40:52.343Z,6.80
2017-11-20T11:43:20.585Z,6.80
2017-11-20T11:45:48.880Z,6.80
2017-11-20T11:48:18.058Z,6.80
2017-11-20T11:50:46.334Z,6.80
2017-11-20T11:53:14.649Z,6.70
2017-11-20T11:55:42.920Z,6.70
2017-11-20T11:58:11.175Z,6.60
2017-11-20T12:00:39.449Z,6.60
2017-11-20T12:03:07.859Z,6.60
2017-11-20T12:05:36.108Z,6.60
2017-11-20T12:08:04.362Z,6.60
2017-11-20T12:10:32.630Z,6.60
2017-11-20T12:13:01.656Z,6.70
2017-11-20T12:15:29.929Z,6.70
2017-11-20T12:17:58.179Z,6.80
2017-11-20T12:20:27.212Z,6.80
2017-11-20T12:22:55.480Z,6.80
2017-11-20T12:25:23.742Z,6.90
2017-11-20T12:27:52.064Z,6.80
2017-11-20T12:30:20.338Z,6.80
2017-11-20T12:32:48.585Z,6.70
2017-11-20T12:35:16.862Z,6.70
2017-11-20T12:37:45.172Z,6.70
2017-11-20T12:40:13.448Z,6.80
2017-11-20T12:42:41.697Z,6.70
2017-11-20T12:45:09.961Z,6.70
2017-11-20T12:47:38.217Z,6.70
2017-11-20T12:50:07.258Z,6.70
2017-11-20T12:52:35.520Z,6.70
2017-11-20T12:55:03.780Z,6.70
2017-11-20T12:57:32.160Z,6.70
2017-11-20T13:00:00.451Z,6.70
2017-11-20T13:02:28.694Z,6.80
2017-11-20T13:04:57.722Z,6.80
2017-11-20T13:07:26.034Z,6.70
2017-11-20T13:09:54.289Z,6.80
2017-11-20T13:12:22.560Z,6.70
2017-11-20T13:14:50.820Z,6.70
2017-11-20T13:17:19.066Z,6.70
2017-11-20T13:19:47.332Z,6.80
2017-11-20T13:22:15.618Z,6.70
2017-11-20T13:24:43.901Z,6.70
2017-11-20T13:27:13.645Z,6.60
2017-11-20T13:29:41.926Z,6.60
2017-11-20T13:32:10.181Z,6.60
2017-11-20T13:34:39.214Z,6.70
2017-11-20T13:37:07.467Z,6.70
2017-11-20T13:39:35.733Z,6.70
2017-11-20T13:42:04.059Z,6.70
2017-11-20T13:44:32.325Z,6.80
2017-11-20T13:47:00.576Z,6.80
2017-11-20T13:49:28.850Z,6.80
2017-11-20T13:51:57.096Z,6.90
2017-11-20T13:54:26.160Z,6.90
2017-11-20T13:56:54.406Z,6.90
2017-11-20T13:59:22.678Z,6.80
2017-11-20T14:01:50.922Z,6.70
2017-11-20T14:04:19.987Z,6.70
2017-11-20T14:06:48.258Z,6.70
2017-11-20T14:09:16.657Z,6.50
2017-11-20T14:11:45.010Z,6.50
2017-11-20T14:14:13.277Z,6.60
2017-11-20T14:16:42.360Z,6.60
2017-11-20T14:19:10.665Z,6.60
2017-11-20T14:21:38.913Z,6.60
2017-11-20T14:24:07.957Z,6.80
2017-11-20T14:26:36.220Z,6.80
2017-11-20T14:29:04.489Z,6.70
2017-11-20T14:31:32.729Z,6.60
2017-11-20T14:34:01.010Z,6.60
2017-11-20T14:36:29.257Z,6.60
2017-11-20T14:38:57.524Z,6.60
2017-11-20T14:41:26.537Z,6.70
2017-11-20T14:43:55.570Z,6.70
2017-11-20T14:46:23.829Z,6.60
2017-11-20T14:48:52.664Z,6.60
2017-11-20T14:51:36.815Z,6.60
2017-11-20T14:54:05.073Z,6.60
2017-11-20T14:56:33.365Z,6.60
2017-11-20T14:59:01.652Z,6.50
2017-11-20T15:01:32.291Z,6.50
2017-11-20T15:04:00.759Z,6.40
2017-11-20T15:06:28.996Z,6.40
2017-11-20T15:08:57.268Z,6.40
2017-11-20T15:11:25.539Z,6.40
2017-11-20T15:13:53.806Z,6.40
2017-11-20T15:16:22.841Z,6.40
2017-11-20T15:18:51.099Z,6.30
2017-11-20T15:21:19.402Z,6.30
2017-11-20T15:23:47.667Z,6.30
2017-11-20T15:26:15.933Z,6.20
2017-11-20T15:28:44.240Z,6.20
2017-11-20T15:31:12.512Z,6.10
2017-11-20T15:33:40.766Z,6.10
2017-11-20T15:36:09.030Z,6.10
2017-11-20T15:38:37.280Z,6.10
2017-11-20T15:41:06.325Z,6.10
2017-11-20T15:43:34.573Z,6.10
2017-11-20T15:46:02.904Z,6.10
2017-11-20T15:48:31.157Z,6.10
2017-11-20T15:50:59.446Z,6.20
2017-11-20T15:53:27.724Z,6.20
2017-11-20T15:55:56.002Z,6.10
2017-11-20T15:58:24.249Z,6.10
2017-11-20T16:00:52.525Z,6.10
2017-11-20T16:03:20.769Z,6.10
2017-11-20T16:05:49.822Z,6.10
2017-11-20T16:08:18.105Z,6.20
2017-11-20T16:10:46.375Z,6.20
2017-11-20T16:13:14.649Z,6.20
2017-11-20T16:15:42.938Z,6.20
2017-11-20T16:18:11.185Z,6.20
2017-11-20T16:20:39.446Z,6.10
2017-11-20T16:23:07.726Z,6.10
2017-11-20T16:25:35.994Z,6.10
2017-11-20T16:28:04.314Z,6.10
2017-11-20T16:30:32.707Z,6.10
2017-11-20T16:33:00.961Z,6.00
2017-11-20T16:35:29.238Z,6.00
2017-11-20T16:37:57.506Z,6.00
2017-11-20T16:40:25.806Z,6.00
2017-11-20T16:42:54.057Z,6.00
2017-11-20T16:45:22.361Z,5.90
2017-11-20T16:47:50.606Z,5.80
2017-11-20T16:50:18.918Z,5.80
2017-11-20T16:52:47.187Z,5.80
2017-11-20T16:55:15.569Z,5.70
2017-11-20T16:57:56.140Z,5.70
2017-11-20T17:00:31.398Z,5.70
2017-11-20T17:03:08.136Z,5.70
2017-11-20T17:05:36.433Z,5.60
2017-11-20T17:08:04.700Z,5.60
2017-11-20T17:10:32.982Z,5.50
2017-11-20T17:13:01.240Z,5.50
2017-11-20T17:15:30.016Z,5.50
2017-11-20T17:17:59.033Z,5.50
2017-11-20T17:20:27.304Z,5.40
2017-11-20T17:22:55.555Z,5.40
2017-11-20T17:25:24.593Z,5.50
2017-11-20T17:27:52.846Z,5.50
2017-11-20T17:30:21.118Z,5.50
2017-11-20T17:32:49.384Z,5.50
2017-11-20T17:35:18.441Z,5.50
2017-11-20T17:37:46.685Z,5.40
2017-11-20T17:40:14.957Z,5.50
2017-11-20T17:42:43.219Z,5.40
2017-11-20T17:45:12.367Z,5.50
2017-11-20T17:47:40.615Z,5.40
2017-11-20T17:50:08.866Z,5.40
2017-11-20T17:52:37.905Z,5.40
2017-11-20T17:55:06.157Z,5.40
2017-11-20T17:57:34.442Z,5.50
2017-11-20T18:00:02.714Z,5.50
2017-11-20T18:02:30.977Z,5.50
2017-11-20T18:04:59.242Z,5.50
2017-11-20T18:07:28.294Z,5.50
2017-11-20T18:09:56.549Z,5.50
2017-11-20T18:12:24.821Z,5.50
2017-11-20T18:14:53.121Z,5.40
2017-11-20T18:17:21.399Z,5.40
2017-11-20T18:19:49.653Z,5.50
2017-11-20T18:22:17.941Z,5.50
2017-11-20T18:24:46.190Z,5.50
2017-11-20T18:27:14.495Z,5.50
2017-11-20T18:29:42.786Z,5.40
2017-11-20T18:32:11.059Z,5.40
2017-11-20T18:34:39.336Z,5.40
2017-11-20T18:37:07.609Z,5.40
2017-11-20T18:39:35.874Z,5.40
2017-11-20T18:42:04.161Z,5.50
2017-11-20T18:44:32.420Z,5.40
2017-11-20T18:47:00.697Z,5.40
2017-11-20T18:49:28.953Z,5.40
2017-11-20T18:51:57.232Z,5.40
2017-11-20T18:54:25.501Z,5.40
2017-11-20T18:56:54.547Z,5.40
2017-11-20T18:59:22.826Z,5.40
2017-11-20T19:02:03.087Z,5.40
2017-11-20T19:04:43.457Z,5.40
2017-11-20T19:07:23.789Z,5.40
2017-11-20T19:09:52.084Z,5.40
2017-11-20T19:12:20.464Z,5.40
2017-11-20T19:14:49.146Z,5.40
2017-11-20T19:17:17.634Z,5.40
2017-11-20T19:19:45.876Z,5.40
2017-11-20T19:22:14.153Z,5.40
2017-11-20T19:24:42.463Z,5.50
2017-11-20T19:27:10.945Z,5.50
2017-11-20T19:29:39.245Z,5.40
2017-11-20T19:32:07.525Z,5.40
2017-11-20T19:34:35.848Z,5.30
2017-11-20T19:37:04.151Z,5.40
2017-11-20T19:39:32.538Z,5.40
2017-11-20T19:42:00.825Z,5.40
2017-11-20T19:44:29.094Z,5.30
2017-11-20T19:46:57.370Z,5.40
2017-11-20T19:49:25.631Z,5.40
2017-11-20T19:51:53.905Z,5.40
2017-11-20T19:54:22.189Z,5.50
2017-11-20T19:56:50.460Z,5.50
2017-11-20T19:59:18.740Z,5.50
2017-11-20T20:01:47.023Z,5.50
2017-11-20T20:04:15.302Z,5.50
2017-11-20T20:06:43.571Z,5.50
2017-11-20T20:09:11.841Z,5.50
2017-11-20T20:11:40.208Z,5.50
2017-11-20T20:14:20.523Z,5.50
2017-11-20T20:16:48.787Z,5.50
2017-11-20T20:19:17.064Z,5.50
2017-11-20T20:21:46.141Z,5.40
2017-11-20T20:24:14.436Z,5.40
2017-11-20T20:26:42.753Z,5.40
2017-11-20T20:29:11.785Z,5.30
2017-11-20T20:31:40.045Z,5.20
2017-11-20T20:34:08.483Z,5.30
2017-11-20T20:36:36.733Z,5.30
2017-11-20T20:39:05.010Z,5.30
2017-11-20T20:41:33.261Z,5.30
2017-11-20T20:44:01.542Z,5.30
2017-11-20T20:46:29.863Z,5.30
2017-11-20T20:48:59.634Z,5.30
2017-11-20T20:51:27.897Z,5.30
2017-11-20T20:53:56.197Z,5.40
2017-11-20T20:56:24.462Z,5.30
2017-11-20T20:58:52.748Z,5.30
2017-11-20T21:01:21.001Z,5.30
2017-11-20T21:03:49.272Z,5.30
2017-11-20T21:06:18.413Z,5.30
2017-11-20T21:08:46.739Z,5.30
2017-11-20T21:11:21.494Z,5.40
2017-11-20T21:13:49.758Z,5.40
2017-11-20T21:16:18.038Z,5.40
2017-11-20T21:18:46.296Z,5.30
2017-11-20T21:21:15.333Z,5.30
2017-11-20T21:23:43.579Z,5.30
2017-11-20T21:26:11.893Z,5.30
2017-11-20T21:28:40.182Z,5.30
2017-11-20T21:31:08.562Z,5.30
2017-11-20T21:33:36.817Z,5.30
2017-11-20T21:36:05.085Z,5.40
2017-11-20T21:38:33.347Z,5.30
2017-11-20T21:41:01.673Z,5.30
2017-11-20T21:43:30.752Z,5.30
2017-11-20T21:45:59.040Z,5.30
2017-11-20T21:48:27.291Z,5.20
2017-11-20T21:50:55.579Z,5.30
2017-11-20T21:53:23.874Z,5.30
2017-11-20T21:55:52.148Z,5.20
2017-11-20T21:58:20.420Z,5.20
2017-11-20T22:00:48.693Z,5.30
2017-11-20T22:03:16.964Z,5.40
2017-11-20T22:05:45.249Z,5.40
2017-11-20T22:08:13.557Z,5.60
2017-11-20T22:10:42.625Z,5.70
2017-11-20T22:13:22.746Z,5.80
2017-11-20T22:15:51.013Z,5.70
2017-11-20T22:18:19.274Z,5.70
2017-11-20T22:20:47.555Z,5.80
2017-11-20T22:23:15.831Z,5.70
2017-11-20T22:25:44.106Z,5.60
2017-11-20T22:28:12.416Z,5.70
2017-11-20T22:30:41.490Z,6.10
2017-11-20T22:33:09.869Z,6.10
2017-11-20T22:35:38.134Z,6.10
2017-11-20T22:38:06.394Z,6.20
2017-11-20T22:40:34.958Z,6.10
2017-11-20T22:43:03.985Z,6.00
2017-11-20T22:45:32.262Z,6.00
2017-11-20T22:48:00.553Z,6.10
2017-11-20T22:50:28.827Z,6.00
2017-11-20T22:52:57.102Z,6.10
2017-11-20T22:55:25.386Z,6.30
2017-11-20T22:57:53.634Z,6.20
2017-11-20T23:00:21.901Z,6.20
2017-11-20T23:02:50.156Z,6.10
2017-11-20T23:05:19.314Z,6.00
2017-11-20T23:07:47.593Z,6.00
2017-11-20T23:10:15.863Z,5.90
2017-11-20T23:12:44.117Z,5.90
2017-11-20T23:15:12.389Z,5.80
2017-11-20T23:17:40.649Z,5.70
2017-11-20T23:20:08.977Z,5.70
2017-11-20T23:22:37.246Z,5.70
2017-11-20T23:25:05.517Z,5.60
2017-11-20T23:27:33.808Z,5.80
2017-11-20T23:30:02.052Z,5.70
2017-11-20T23:32:30.362Z,5.70
2017-11-20T23:34:58.628Z,6.00
2017-11-20T23:37:26.913Z,6.00
2017-11-20T23:39:55.285Z,5.70
2017-11-20T23:42:23.550Z,5.90
2017-11-20T23:44:51.966Z,5.80
2017-11-20T23:47:20.321Z,5.90
2017-11-20T23:49:48.582Z,5.80
2017-11-20T23:52:16.902Z,5.80
2017-11-20T23:54:45.980Z,5.90
2017-11-20T23:57:14.360Z,5.80
2017-11-20T23:59:42.741Z,5.80
